createdAt,value
2017-10-20T00:01:18.627Z,87.48
2017-10-20T00:03:46.237Z,87.17
2017-10-20T00:06:13.895Z,86.78
2017-10-20T00:08:41.502Z,86.92
2017-10-20T00:11:09.183Z,87.00
2017-10-20T00:13:36.888Z,87.06
2017-10-20T00:16:04.502Z,87.38
2017-10-20T00:18:32.185Z,87.51
2017-10-20T00:20:59.838Z,87.61
2017-10-20T00:23:27.504Z,87.80
2017-10-20T00:25:55.116Z,87.92
2017-10-20T00:28:22.840Z,87.97
2017-10-20T00:30:50.459Z,87.95
2017-10-20T00:33:18.129Z,87.88
2017-10-20T00:35:45.790Z,87.89
2017-10-20T00:38:13.399Z,87.82
2017-10-20T00:40:41.059Z,87.87
2017-10-20T00:43:08.719Z,87.94
2017-10-20T00:45:36.327Z,87.90
2017-10-20T00:48:04.004Z,88.02
2017-10-20T00:50:31.712Z,87.99
2017-10-20T00:52:59.318Z,88.23
2017-10-20T00:55:26.943Z,88.07
2017-10-20T00:57:54.660Z,87.63
2017-10-20T01:00:22.327Z,87.28
2017-10-20T01:02:49.931Z,87.30
2017-10-20T01:05:17.647Z,87.19
2017-10-20T01:07:45.316Z,87.50
2017-10-20T01:10:12.923Z,87.50
2017-10-20T01:12:40.596Z,87.68
2017-10-20T01:15:08.276Z,87.79
2017-10-20T01:17:35.883Z,88.40
2017-10-20T01:20:03.655Z,88.68
2017-10-20T01:22:31.302Z,88.59
2017-10-20T01:24:58.955Z,88.60
2017-10-20T01:27:26.637Z,88.96
2017-10-20T01:29:54.276Z,89.12
2017-10-20T01:32:21.916Z,89.27
2017-10-20T01:34:49.596Z,89.20
2017-10-20T01:37:17.228Z,89.00
2017-10-20T01:39:44.851Z,88.91
2017-10-20T01:42:12.563Z,89.01
2017-10-20T01:44:40.203Z,88.80
2017-10-20T01:47:07.835Z,88.74
2017-10-20T01:49:35.564Z,88.68
2017-10-20T01:52:03.212Z,88.90
2017-10-20T01:54:30.889Z,88.86
2017-10-20T01:56:58.563Z,89.03
2017-10-20T01:59:26.243Z,88.98
2017-10-20T02:01:53.883Z,88.85
2017-10-20T02:04:21.603Z,88.95
2017-10-20T02:06:49.264Z,88.98
2017-10-20T02:09:16.903Z,89.11
2017-10-20T02:11:44.612Z,89.11
2017-10-20T02:14:12.219Z,89.22
2017-10-20T02:16:40.555Z,89.20
2017-10-20T02:19:08.300Z,89.18
2017-10-20T02:21:35.911Z,89.04
2017-10-20T02:24:03.584Z,89.00
2017-10-20T02:26:31.307Z,89.05
2017-10-20T02:28:58.987Z,89.16
2017-10-20T02:31:26.664Z,89.31
2017-10-20T02:33:54.420Z,89.32
2017-10-20T02:36:22.024Z,89.42
2017-10-20T02:38:49.636Z,89.61
2017-10-20T02:41:17.288Z,89.50
2017-10-20T02:43:44.900Z,89.30
2017-10-20T02:46:12.514Z,89.19
2017-10-20T02:48:40.174Z,89.22
2017-10-20T02:51:07.803Z,89.29
2017-10-20T02:53:35.443Z,89.41
2017-10-20T02:56:03.179Z,89.39
2017-10-20T02:58:30.791Z,89.24
2017-10-20T03:00:58.415Z,89.07
2017-10-20T03:03:26.066Z,89.03
2017-10-20T03:05:53.730Z,89.06
2017-10-20T03:08:21.347Z,88.86
2017-10-20T03:10:49.102Z,88.77
2017-10-20T03:13:16.718Z,88.68
2017-10-20T03:15:44.327Z,89.03
2017-10-20T03:18:12.040Z,89.40
2017-10-20T03:20:39.643Z,89.40
2017-10-20T03:23:07.251Z,89.03
2017-10-20T03:25:34.955Z,88.81
2017-10-20T03:28:02.559Z,88.65
2017-10-20T03:30:30.167Z,88.41
2017-10-20T03:32:57.890Z,88.28
2017-10-20T03:35:25.495Z,88.02
2017-10-20T03:37:53.155Z,87.91
2017-10-20T03:40:20.799Z,88.06
2017-10-20T03:42:48.468Z,88.37
2017-10-20T03:45:16.135Z,88.52
2017-10-20T03:47:43.779Z,88.71
2017-10-20T03:50:11.386Z,88.85
2017-10-20T03:52:38.983Z,88.82
2017-10-20T03:55:06.632Z,88.55
2017-10-20T03:57:34.229Z,88.40
2017-10-20T04:00:01.843Z,88.38
2017-10-20T04:02:29.548Z,88.37
2017-10-20T04:04:57.198Z,88.30
2017-10-20T04:07:24.850Z,88.52
2017-10-20T04:09:52.496Z,88.51
2017-10-20T04:12:20.160Z,88.69
2017-10-20T04:14:47.771Z,88.63
2017-10-20T04:17:15.527Z,88.67
2017-10-20T04:19:43.199Z,88.63
2017-10-20T04:22:10.796Z,88.69
2017-10-20T04:24:38.539Z,88.85
2017-10-20T04:27:06.199Z,89.00
2017-10-20T04:29:33.916Z,89.09
2017-10-20T04:32:01.683Z,88.95
2017-10-20T04:34:29.332Z,88.98
2017-10-20T04:36:56.999Z,89.26
2017-10-20T04:39:24.652Z,89.27
2017-10-20T04:41:52.259Z,89.16
2017-10-20T04:44:19.855Z,89.07
2017-10-20T04:46:47.587Z,89.20
2017-10-20T04:49:15.247Z,89.14
2017-10-20T04:51:42.847Z,88.80
2017-10-20T04:54:10.503Z,88.85
2017-10-20T04:56:38.359Z,88.75
2017-10-20T04:59:06.027Z,88.25
2017-10-20T05:01:33.781Z,88.27
2017-10-20T05:04:01.440Z,88.38
2017-10-20T05:06:29.107Z,88.35
2017-10-20T05:08:56.766Z,88.38
2017-10-20T05:11:24.427Z,88.36
2017-10-20T05:13:52.027Z,88.00
2017-10-20T05:16:19.681Z,87.46
2017-10-20T05:18:47.287Z,87.15
2017-10-20T05:21:14.946Z,86.77
2017-10-20T05:23:43.031Z,86.24
2017-10-20T05:26:10.694Z,85.75
2017-10-20T05:28:38.311Z,85.38
2017-10-20T05:31:06.068Z,84.28
2017-10-20T05:33:33.726Z,84.02
2017-10-20T05:36:01.394Z,82.89
2017-10-20T05:38:29.154Z,83.38
2017-10-20T05:40:56.759Z,82.82
2017-10-20T05:43:24.424Z,81.92
2017-10-20T05:45:52.127Z,81.64
2017-10-20T05:48:19.732Z,81.39
2017-10-20T05:50:47.335Z,81.51
2017-10-20T05:53:15.043Z,80.54
2017-10-20T05:55:42.639Z,79.95
2017-10-20T06:25:24.854Z,77.81
2017-10-20T06:27:52.511Z,76.49
2017-10-20T06:30:20.120Z,76.59
2017-10-20T06:32:47.775Z,76.63
2017-10-20T06:35:15.442Z,75.85
2017-10-20T06:37:43.043Z,76.02
2017-10-20T06:40:10.784Z,76.05
2017-10-20T06:42:38.383Z,75.84
2017-10-20T06:45:06.053Z,75.43
2017-10-20T06:47:33.819Z,74.32
2017-10-20T06:50:01.444Z,74.20
2017-10-20T06:52:29.106Z,74.49
2017-10-20T06:54:56.828Z,74.19
2017-10-20T06:57:24.509Z,73.03
2017-10-20T06:59:52.167Z,73.17
2017-10-20T07:02:19.827Z,72.54
2017-10-20T07:04:47.430Z,72.81
2017-10-20T07:07:15.032Z,72.55
2017-10-20T07:09:42.710Z,72.11
2017-10-20T07:12:10.339Z,71.78
2017-10-20T07:14:37.943Z,70.84
2017-10-20T07:17:05.667Z,69.57
2017-10-20T07:19:36.879Z,69.88
2017-10-20T07:22:04.556Z,70.51
2017-10-20T07:24:32.271Z,69.64
2017-10-20T07:26:59.947Z,71.90
2017-10-20T07:29:27.628Z,69.73
2017-10-20T07:31:55.339Z,68.75
2017-10-20T07:34:22.943Z,68.73
2017-10-20T07:36:50.548Z,68.18
2017-10-20T07:39:18.218Z,67.05
2017-10-20T07:41:45.892Z,67.53
2017-10-20T07:44:13.490Z,68.72
2017-10-20T07:46:43.154Z,67.05
2017-10-20T07:49:10.755Z,67.54
2017-10-20T07:51:38.355Z,67.82
2017-10-20T07:54:06.062Z,68.39
2017-10-20T07:56:33.680Z,66.96
2017-10-20T07:59:01.279Z,66.63
2017-10-20T08:01:28.935Z,66.41
2017-10-20T08:03:56.526Z,66.01
2017-10-20T08:06:24.184Z,65.86
2017-10-20T08:08:51.919Z,65.48
2017-10-20T08:11:19.516Z,64.48
2017-10-20T08:13:47.111Z,64.28
2017-10-20T08:16:14.763Z,63.81
2017-10-20T08:34:37.099Z,61.32
2017-10-20T08:37:04.700Z,60.16
2017-10-20T08:39:32.398Z,61.61
2017-10-20T08:42:00.110Z,61.27
2017-10-20T08:44:27.711Z,60.10
2017-10-20T08:46:55.423Z,60.53
2017-10-20T08:49:23.187Z,60.11
2017-10-20T08:51:50.851Z,59.74
2017-10-20T08:54:18.516Z,59.86
2017-10-20T08:56:46.232Z,59.48
2017-10-20T08:59:13.892Z,59.13
2017-10-20T09:01:41.629Z,59.26
2017-10-20T09:04:09.352Z,58.50
2017-10-20T09:06:37.011Z,57.50
2017-10-20T09:09:04.680Z,57.90
2017-10-20T09:11:32.405Z,58.74
2017-10-20T09:14:00.069Z,57.24
2017-10-20T09:16:27.731Z,56.99
2017-10-20T09:18:55.502Z,56.48
2017-10-20T09:21:23.160Z,56.60
2017-10-20T09:23:50.835Z,56.07
2017-10-20T09:26:18.555Z,55.60
2017-10-20T09:28:46.208Z,55.87
2017-10-20T09:31:13.868Z,54.60
2017-10-20T09:33:41.587Z,54.62
2017-10-20T09:36:09.277Z,55.23
2017-10-20T09:38:36.947Z,52.53
2017-10-20T09:41:04.653Z,52.78
2017-10-20T09:43:32.320Z,53.66
2017-10-20T09:45:59.980Z,51.75
2017-10-20T09:48:27.691Z,51.32
2017-10-20T09:50:55.359Z,50.74
2017-10-20T09:53:23.016Z,50.82
2017-10-20T09:55:50.727Z,50.27
2017-10-20T09:58:18.387Z,49.74
2017-10-20T10:00:46.050Z,49.62
2017-10-20T10:03:13.851Z,49.96
2017-10-20T10:05:41.512Z,49.65
2017-10-20T10:08:09.176Z,48.45
2017-10-20T10:10:36.939Z,48.42
2017-10-20T10:13:04.651Z,47.79
2017-10-20T10:15:32.315Z,47.74
2017-10-20T10:18:00.025Z,47.31
2017-10-20T10:20:27.696Z,46.85
2017-10-20T10:22:55.411Z,46.23
2017-10-20T10:25:23.167Z,46.41
2017-10-20T10:27:50.827Z,46.03
2017-10-20T10:30:18.547Z,46.51
2017-10-20T10:32:46.296Z,46.11
2017-10-20T10:35:13.967Z,45.64
2017-10-20T10:37:41.655Z,45.93
2017-10-20T10:40:09.359Z,45.33
2017-10-20T10:42:37.019Z,43.43
2017-10-20T10:45:04.695Z,42.31
2017-10-20T10:47:32.395Z,40.15
2017-10-20T10:50:00.059Z,39.35
2017-10-20T10:52:27.725Z,39.49
2017-10-20T10:54:55.439Z,40.70
2017-10-20T10:57:22.973Z,41.51
2017-10-20T10:59:50.510Z,41.58
2017-10-20T11:02:18.086Z,41.83
2017-10-20T11:04:45.629Z,42.80
2017-10-20T11:07:25.170Z,43.39
2017-10-20T11:13:00.895Z,41.91
2017-10-20T11:15:28.477Z,40.49
2017-10-20T11:17:56.009Z,40.51
2017-10-20T11:20:23.594Z,38.24
2017-10-20T11:22:51.128Z,36.83
2017-10-20T11:25:18.661Z,34.08
2017-10-20T11:27:46.238Z,33.35
2017-10-20T11:30:13.778Z,33.22
2017-10-20T11:32:41.313Z,32.47
2017-10-20T11:35:08.898Z,32.69
2017-10-20T11:37:36.455Z,32.75
2017-10-20T11:40:03.993Z,32.84
2017-10-20T11:42:31.581Z,31.88
2017-10-20T11:44:59.137Z,30.76
2017-10-20T11:47:26.665Z,29.92
2017-10-20T11:49:54.241Z,29.01
2017-10-20T11:52:21.793Z,29.87
2017-10-20T11:54:49.349Z,31.19
2017-10-20T11:57:16.933Z,32.69
2017-10-20T11:59:44.478Z,33.71
2017-10-20T12:02:12.021Z,35.90
2017-10-20T12:04:39.613Z,36.70
2017-10-20T12:07:07.154Z,38.38
2017-10-20T12:09:34.697Z,38.71
2017-10-20T12:12:02.375Z,40.08
2017-10-20T12:14:29.918Z,40.59
2017-10-20T12:16:57.514Z,41.45
2017-10-20T12:19:25.087Z,42.26
2017-10-20T12:21:52.621Z,42.06
2017-10-20T12:24:20.168Z,42.18
2017-10-20T12:26:47.774Z,42.56
2017-10-20T12:29:15.309Z,42.79
2017-10-20T12:31:42.836Z,43.36
2017-10-20T12:34:10.558Z,43.45
2017-10-20T12:36:38.085Z,43.24
2017-10-20T12:39:05.617Z,43.64
2017-10-20T12:41:33.195Z,44.18
2017-10-20T12:44:00.725Z,43.84
2017-10-20T12:46:28.261Z,44.29
2017-10-20T12:48:55.829Z,43.37
2017-10-20T12:51:23.361Z,43.46
2017-10-20T12:53:50.946Z,44.02
2017-10-20T12:56:19.537Z,44.12
2017-10-20T12:58:47.065Z,44.14
2017-10-20T13:01:14.661Z,43.52
2017-10-20T13:03:42.245Z,43.43
2017-10-20T13:06:09.798Z,44.01
2017-10-20T13:08:37.338Z,44.65
2017-10-20T13:11:05.014Z,44.81
2017-10-20T13:13:32.642Z,45.51
2017-10-20T13:16:00.182Z,44.91
2017-10-20T13:18:27.762Z,45.23
2017-10-20T13:20:55.301Z,45.02
2017-10-20T13:23:22.974Z,44.54
2017-10-20T13:25:50.542Z,45.03
2017-10-20T13:28:18.081Z,45.33
2017-10-20T13:30:45.630Z,44.52
2017-10-20T13:33:13.212Z,44.61
2017-10-20T13:35:40.738Z,45.31
2017-10-20T13:38:08.284Z,44.90
2017-10-20T13:40:35.862Z,45.03
2017-10-20T13:43:03.413Z,45.10
2017-10-20T13:45:30.950Z,45.99
2017-10-20T13:47:58.526Z,45.04
2017-10-20T13:50:26.066Z,45.68
2017-10-20T13:52:53.612Z,45.95
2017-10-20T13:55:21.193Z,45.99
2017-10-20T13:57:48.734Z,46.15
2017-10-20T14:00:16.286Z,45.18
2017-10-20T14:02:43.918Z,46.19
2017-10-20T14:05:11.483Z,45.96
2017-10-20T14:07:39.041Z,45.01
2017-10-20T14:10:06.610Z,44.93
2017-10-20T14:12:34.146Z,45.63
2017-10-20T14:15:01.691Z,45.96
2017-10-20T14:17:29.266Z,46.12
2017-10-20T14:19:56.830Z,46.77
2017-10-20T14:22:24.379Z,47.36
2017-10-20T14:24:51.978Z,48.09
2017-10-20T14:27:19.536Z,49.10
2017-10-20T14:29:47.114Z,49.13
2017-10-20T14:32:14.726Z,49.93
2017-10-20T14:34:42.298Z,50.43
2017-10-20T14:37:09.851Z,51.60
2017-10-20T14:39:37.470Z,52.40
2017-10-20T14:42:05.007Z,53.43
2017-10-20T14:44:32.550Z,53.47
2017-10-20T14:47:00.150Z,53.69
2017-10-20T14:49:27.706Z,54.24
2017-10-20T14:51:55.246Z,54.49
2017-10-20T14:54:22.854Z,54.70
2017-10-20T14:56:50.398Z,54.66
2017-10-20T14:59:17.936Z,55.43
2017-10-20T15:01:45.522Z,56.09
2017-10-20T15:04:13.127Z,56.91
2017-10-20T15:06:40.679Z,57.96
2017-10-20T15:09:08.270Z,58.58
2017-10-20T15:11:35.934Z,59.32
2017-10-20T15:14:03.502Z,60.29
2017-10-20T15:16:31.075Z,61.02
2017-10-20T15:18:58.635Z,61.60
2017-10-20T15:21:26.186Z,62.27
2017-10-20T15:23:54.658Z,63.22
2017-10-20T15:26:22.271Z,63.74
2017-10-20T15:28:49.823Z,64.41
2017-10-20T15:31:17.401Z,64.81
2017-10-20T15:33:44.946Z,65.53
2017-10-20T15:36:12.500Z,65.71
2017-10-20T15:38:40.087Z,66.00
2017-10-20T15:41:07.667Z,66.46
2017-10-20T15:43:35.250Z,66.57
2017-10-20T15:46:02.834Z,66.42
2017-10-20T15:48:30.388Z,66.83
2017-10-20T15:50:57.934Z,66.96
2017-10-20T15:53:25.514Z,67.62
2017-10-20T15:55:53.086Z,68.26
2017-10-20T15:58:20.630Z,68.22
2017-10-20T16:00:48.210Z,68.16
2017-10-20T16:03:15.749Z,68.26
2017-10-20T16:05:43.295Z,67.88
2017-10-20T16:08:11.110Z,68.14
2017-10-20T16:10:38.683Z,68.09
2017-10-20T16:13:06.225Z,68.23
2017-10-20T16:15:33.802Z,68.42
2017-10-20T16:18:01.359Z,68.59
2017-10-20T16:20:28.958Z,68.54
2017-10-20T16:22:56.624Z,68.44
2017-10-20T16:25:24.230Z,68.53
2017-10-20T16:27:51.845Z,68.53
2017-10-20T16:30:19.499Z,68.33
2017-10-20T16:32:47.186Z,68.42
2017-10-20T16:35:14.799Z,68.54
2017-10-20T16:37:42.475Z,68.66
2017-10-20T16:40:10.139Z,68.70
2017-10-20T16:42:37.811Z,68.80
2017-10-20T16:45:05.470Z,68.91
2017-10-20T16:47:33.076Z,69.09
2017-10-20T16:50:00.744Z,69.15
2017-10-20T16:52:28.508Z,69.36
2017-10-20T16:54:56.118Z,69.45
2017-10-20T16:57:23.726Z,69.67
2017-10-20T16:59:51.534Z,69.87
2017-10-20T17:02:19.156Z,69.66
2017-10-20T17:04:47.158Z,69.66
2017-10-20T17:07:14.889Z,69.90
2017-10-20T17:09:42.491Z,69.97
2017-10-20T17:12:10.167Z,70.24
2017-10-20T17:14:37.889Z,70.53
2017-10-20T17:17:05.513Z,70.48
2017-10-20T17:19:33.276Z,70.65
2017-10-20T17:22:00.931Z,70.55
2017-10-20T17:24:28.599Z,70.52
2017-10-20T17:26:56.208Z,70.25
2017-10-20T17:29:23.924Z,70.22
2017-10-20T17:31:51.567Z,70.18
2017-10-20T17:34:19.176Z,70.36
2017-10-20T17:36:46.827Z,70.60
2017-10-20T17:39:14.436Z,70.36
2017-10-20T17:41:42.059Z,70.36
2017-10-20T17:44:09.724Z,70.30
2017-10-20T17:46:37.388Z,70.45
2017-10-20T17:49:05.042Z,70.49
2017-10-20T17:51:32.704Z,70.52
2017-10-20T17:54:01.452Z,70.54
2017-10-20T17:56:29.123Z,70.62
2017-10-20T17:58:56.825Z,70.44
2017-10-20T18:01:24.488Z,70.29
2017-10-20T18:03:52.095Z,70.61
2017-10-20T18:06:19.775Z,70.32
2017-10-20T18:08:47.439Z,70.63
2017-10-20T18:11:15.059Z,70.75
2017-10-20T18:13:42.756Z,70.65
2017-10-20T18:16:10.363Z,70.52
2017-10-20T18:18:38.028Z,70.59
2017-10-20T18:21:05.740Z,70.31
2017-10-20T18:23:33.357Z,70.40
2017-10-20T18:26:00.994Z,70.54
2017-10-20T18:28:28.664Z,70.61
2017-10-20T18:30:56.267Z,70.72
2017-10-20T18:33:23.879Z,70.76
2017-10-20T18:35:51.592Z,70.73
2017-10-20T18:38:19.268Z,70.73
2017-10-20T18:40:46.951Z,70.63
2017-10-20T18:43:14.638Z,70.53
2017-10-20T18:45:42.303Z,70.62
2017-10-20T18:48:09.918Z,70.55
2017-10-20T18:50:37.591Z,70.75
2017-10-20T18:53:05.208Z,70.83
2017-10-20T18:55:32.876Z,70.90
2017-10-20T18:58:00.528Z,71.12
2017-10-20T19:00:28.143Z,70.99
2017-10-20T19:02:55.812Z,71.43
2017-10-20T19:05:23.482Z,72.13
2017-10-20T19:07:51.095Z,72.42
2017-10-20T19:10:18.767Z,72.38
2017-10-20T19:12:46.427Z,72.02
2017-10-20T19:15:14.035Z,71.72
2017-10-20T19:17:41.711Z,70.96
2017-10-20T19:20:09.399Z,70.34
2017-10-20T19:22:37.012Z,69.77
2017-10-20T19:25:04.628Z,69.08
2017-10-20T19:27:32.292Z,68.79
2017-10-20T19:29:59.923Z,68.64
2017-10-20T19:32:27.536Z,68.80
2017-10-20T19:34:55.255Z,68.49
2017-10-20T19:37:22.944Z,69.00
2017-10-20T19:39:50.569Z,69.23
2017-10-20T19:42:18.233Z,69.60
2017-10-20T19:44:45.912Z,70.52
2017-10-20T19:47:13.540Z,70.86
2017-10-20T19:49:41.215Z,71.27
2017-10-20T19:52:08.823Z,71.51
2017-10-20T19:54:36.498Z,70.93
2017-10-20T19:57:04.163Z,71.36
2017-10-20T19:59:31.790Z,72.32
2017-10-20T20:01:59.403Z,72.48
2017-10-20T20:04:27.135Z,72.70
2017-10-20T20:06:54.800Z,72.99
2017-10-20T20:09:22.523Z,73.20
2017-10-20T20:11:50.243Z,73.70
2017-10-20T20:14:17.852Z,74.39
2017-10-20T20:16:45.462Z,74.70
2017-10-20T20:19:13.175Z,75.09
2017-10-20T20:21:40.834Z,75.94
2017-10-20T20:24:08.556Z,75.88
2017-10-20T20:26:36.272Z,76.14
2017-10-20T20:29:03.927Z,76.16
2017-10-20T20:31:34.059Z,76.77
2017-10-20T20:34:03.754Z,77.09
2017-10-20T20:36:31.415Z,77.09
2017-10-20T20:38:59.066Z,77.23
2017-10-20T20:41:26.719Z,77.62
2017-10-20T20:43:54.322Z,77.68
2017-10-20T20:46:22.061Z,77.81
2017-10-20T20:48:49.719Z,78.01
2017-10-20T20:51:17.379Z,78.53
2017-10-20T20:53:45.052Z,78.93
2017-10-20T20:56:12.704Z,79.17
2017-10-20T20:58:40.308Z,79.44
2017-10-20T21:01:07.924Z,79.71
2017-10-20T21:03:35.668Z,80.04
2017-10-20T21:06:03.287Z,79.97
2017-10-20T21:08:31.017Z,80.36
2017-10-20T21:10:58.767Z,80.69
2017-10-20T21:13:26.506Z,81.06
2017-10-20T21:15:54.215Z,81.63
2017-10-20T21:18:22.032Z,81.41
2017-10-20T21:20:49.722Z,81.11
2017-10-20T21:23:17.427Z,81.34
2017-10-20T21:25:45.127Z,81.79
2017-10-20T21:28:12.806Z,81.92
2017-10-20T21:30:40.499Z,82.33
2017-10-20T21:33:08.239Z,82.37
2017-10-20T21:35:35.879Z,82.80
2017-10-20T21:38:03.511Z,82.68
2017-10-20T21:40:31.200Z,83.05
2017-10-20T21:42:58.815Z,82.89
2017-10-20T21:45:26.439Z,82.99
2017-10-20T21:47:54.126Z,83.29
2017-10-20T21:50:21.807Z,83.44
2017-10-20T21:52:49.480Z,83.42
2017-10-20T21:55:17.161Z,83.43
2017-10-20T21:57:44.779Z,83.54
2017-10-20T22:00:12.403Z,83.59
2017-10-20T22:02:40.134Z,84.04
2017-10-20T22:05:07.803Z,83.96
2017-10-20T22:07:35.423Z,84.60
2017-10-20T22:10:03.096Z,84.82
2017-10-20T22:12:30.722Z,84.96
2017-10-20T22:14:58.350Z,84.74
2017-10-20T22:17:26.027Z,84.44
2017-10-20T22:19:53.655Z,84.93
2017-10-20T22:22:21.281Z,85.44
2017-10-20T22:24:48.955Z,85.27
2017-10-20T22:27:16.563Z,84.62
2017-10-20T22:29:44.240Z,84.28
2017-10-20T22:32:11.958Z,85.06
2017-10-20T22:34:39.579Z,85.32
2017-10-20T22:37:07.204Z,85.49
2017-10-20T22:39:34.883Z,84.93
2017-10-20T22:42:02.520Z,84.85
2017-10-20T22:44:30.147Z,85.28
2017-10-20T22:46:57.818Z,85.77
2017-10-20T22:49:25.436Z,86.14
2017-10-20T22:51:53.127Z,86.14
2017-10-20T22:54:20.798Z,86.45
2017-10-20T22:56:48.412Z,86.68
2017-10-20T22:59:16.018Z,86.83
2017-10-20T23:01:43.740Z,86.55
2017-10-20T23:04:11.363Z,86.60
2017-10-20T23:06:39.048Z,86.68
2017-10-20T23:09:06.780Z,86.97
2017-10-20T23:11:34.403Z,87.04
2017-10-20T23:14:02.034Z,87.25
2017-10-20T23:16:29.743Z,87.23
2017-10-20T23:18:57.363Z,87.23
2017-10-20T23:21:24.990Z,87.49
2017-10-20T23:23:52.699Z,87.60
2017-10-20T23:26:20.315Z,87.32
2017-10-20T23:28:47.941Z,87.02
2017-10-20T23:31:15.684Z,87.37
2017-10-20T23:33:43.306Z,87.11
2017-10-20T23:36:10.951Z,86.80
2017-10-20T23:38:38.680Z,86.82
2017-10-20T23:41:06.370Z,86.77
2017-10-20T23:43:34.010Z,86.93
2017-10-20T23:46:01.731Z,86.92
2017-10-20T23:48:29.356Z,86.94
2017-10-20T23:50:57.047Z,86.58
2017-10-20T23:53:24.724Z,86.38
2017-10-20T23:55:52.342Z,86.34
2017-10-20T23:58:19.952Z,87.01
